createdAt,value
2023-02-09T00:02:47.975Z,-0.60
2023-02-09T00:07:49.707Z,-0.50
2023-02-09T00:13:10.268Z,-0.50
2023-02-09T00:18:12.374Z,-0.50
2023-02-09T00:23:14.273Z,-0.60
2023-02-09T00:28:16.100Z,-0.60
2023-02-09T00:33:18.189Z,-0.60
2023-02-09T00:38:19.961Z,-0.80
2023-02-09T00:43:21.767Z,-0.90
2023-02-09T00:48:23.867Z,-0.80
2023-02-09T00:53:26.362Z,-1.00
2023-02-09T00:58:28.263Z,-0.90
2023-02-09T01:03:29.973Z,0.70
2023-02-09T01:08:31.912Z,-0.90
2023-02-09T01:13:33.691Z,-0.90
2023-02-09T01:18:35.805Z,-1.00
2023-02-09T01:23:37.536Z,-0.90
2023-02-09T01:28:39.587Z,-0.80
2023-02-09T01:33:41.374Z,-0.90
2023-02-09T01:38:43.468Z,-1.10
2023-02-09T01:44:14.707Z,-1.10
2023-02-09T01:49:21.707Z,-1.20
2023-02-09T01:54:34.718Z,-1.20
2023-02-09T01:59:38.774Z,-1.30
2023-02-09T02:04:42.326Z,-1.30
2023-02-09T02:09:46.485Z,-1.70
2023-02-09T02:14:48.232Z,-1.70
2023-02-09T02:20:34.289Z,-1.60
2023-02-09T02:25:57.708Z,-1.50
2023-02-09T02:31:05.395Z,-1.70
2023-02-09T02:36:18.276Z,-1.70
2023-02-09T02:41:55.581Z,-1.70
2023-02-09T02:47:01.873Z,-1.70
2023-02-09T02:52:07.992Z,-1.50
2023-02-09T02:57:15.035Z,-1.60
2023-02-09T03:02:21.939Z,-2.10
2023-02-09T03:07:24.034Z,-2.00
2023-02-09T03:12:51.289Z,-1.90
2023-02-09T03:18:10.628Z,-2.00
2023-02-09T03:23:27.095Z,-2.00
2023-02-09T03:28:36.053Z,-1.90
2023-02-09T03:33:39.457Z,-2.20
2023-02-09T03:38:41.364Z,-2.30
2023-02-09T03:44:01.875Z,-2.20
2023-02-09T03:49:03.941Z,-2.10
2023-02-09T03:54:06.291Z,-2.10
2023-02-09T03:59:08.307Z,-2.20
2023-02-09T04:04:10.256Z,-2.20
2023-02-09T04:09:13.237Z,-2.20
2023-02-09T04:14:15.706Z,-2.20
2023-02-09T04:19:17.523Z,-2.40
2023-02-09T04:24:19.648Z,-2.30
2023-02-09T04:29:21.528Z,-2.20
2023-02-09T04:34:24.596Z,-2.30
2023-02-09T04:39:26.674Z,-2.40
2023-02-09T04:44:28.612Z,-2.30
2023-02-09T04:49:30.408Z,-2.30
2023-02-09T04:54:32.124Z,-2.30
2023-02-09T04:59:39.260Z,-2.40
2023-02-09T05:04:41.173Z,-2.60
2023-02-09T05:09:42.897Z,-2.50
2023-02-09T05:14:44.691Z,-2.50
2023-02-09T05:19:47.148Z,-2.50
2023-02-09T05:24:49.167Z,-2.50
2023-02-09T05:29:51.239Z,-2.50
2023-02-09T05:34:53.037Z,-2.90
2023-02-09T05:39:55.212Z,-2.80
2023-02-09T05:44:56.959Z,-2.80
2023-02-09T05:55:01.147Z,-2.70
2023-02-09T06:00:05.296Z,-2.70
2023-02-09T06:05:07.931Z,-2.90
2023-02-09T06:10:10.273Z,-2.90
2023-02-09T06:15:12.735Z,-2.90
2023-02-09T06:20:14.512Z,-3.00
2023-02-09T06:25:16.900Z,-3.00
2023-02-09T06:30:18.978Z,-2.90
2023-02-09T06:35:20.837Z,-3.10
2023-02-09T06:40:22.591Z,-3.30
2023-02-09T06:45:24.489Z,-3.30
2023-02-09T06:50:26.295Z,-2.90
2023-02-09T06:55:28.559Z,-3.00
2023-02-09T07:00:31.772Z,-2.80
2023-02-09T07:05:33.645Z,-2.90
2023-02-09T07:10:35.853Z,-3.10
2023-02-09T07:15:37.798Z,-2.90
2023-02-09T07:20:40.035Z,-2.60
2023-02-09T07:25:41.826Z,-2.60
2023-02-09T07:30:43.929Z,-2.30
2023-02-09T07:35:46.517Z,-2.30
2023-02-09T07:40:48.609Z,-2.10
2023-02-09T07:45:50.649Z,-2.20
2023-02-09T07:50:53.209Z,-2.10
2023-02-09T07:55:55.199Z,-1.80
2023-02-09T08:01:04.544Z,-2.10
2023-02-09T08:06:40.663Z,-2.10
2023-02-09T08:11:48.462Z,-1.80
2023-02-09T08:17:13.173Z,-1.60
2023-02-09T08:22:15.127Z,-0.90
2023-02-09T08:27:17.137Z,-0.70
2023-02-09T08:32:19.128Z,-0.40
2023-02-09T08:37:21.384Z,-0.40
2023-02-09T08:42:23.251Z,-0.20
2023-02-09T08:47:25.086Z,0.30
2023-02-09T08:52:27.163Z,0.20
2023-02-09T08:57:42.759Z,0.90
2023-02-09T09:02:45.636Z,1.30
2023-02-09T09:07:48.153Z,1.70
2023-02-09T09:12:51.333Z,2.00
2023-02-09T09:17:53.432Z,2.40
2023-02-09T09:22:59.550Z,3.20
2023-02-09T09:28:01.570Z,3.30
2023-02-09T09:33:05.026Z,3.40
2023-02-09T09:38:06.810Z,4.10
2023-02-09T09:43:21.943Z,4.40
2023-02-09T09:48:35.523Z,4.10
2023-02-09T09:53:38.416Z,4.60
2023-02-09T09:58:43.592Z,4.90
2023-02-09T10:03:45.443Z,4.80
2023-02-09T10:09:01.573Z,4.60
2023-02-09T10:14:03.455Z,5.30
2023-02-09T10:19:17.206Z,5.50
2023-02-09T10:24:32.979Z,5.20
2023-02-09T10:29:36.729Z,5.00
2023-02-09T10:34:38.520Z,4.20
2023-02-09T10:39:40.733Z,4.30
2023-02-09T10:44:49.653Z,4.80
2023-02-09T10:49:55.828Z,5.00
2023-02-09T10:55:01.882Z,5.30
2023-02-09T11:00:32.025Z,5.70
2023-02-09T11:05:35.500Z,5.70
2023-02-09T11:10:43.652Z,6.40
2023-02-09T11:15:59.832Z,7.10
2023-02-09T11:21:11.603Z,8.30
2023-02-09T11:26:39.587Z,9.40
2023-02-09T11:32:03.450Z,9.70
2023-02-09T11:37:16.590Z,9.00
2023-02-09T11:42:45.046Z,13.20
2023-02-09T11:48:20.183Z,14.70
2023-02-09T11:53:22.249Z,15.70
2023-02-09T11:58:53.793Z,14.90
2023-02-09T12:03:59.289Z,15.70
2023-02-09T12:09:16.796Z,16.70
2023-02-09T12:14:43.994Z,14.10
2023-02-09T12:19:56.253Z,15.90
2023-02-09T12:25:23.870Z,13.30
2023-02-09T12:30:41.122Z,14.70
2023-02-09T12:35:46.979Z,15.80
2023-02-09T12:41:08.062Z,14.60
2023-02-09T12:46:16.672Z,14.40
2023-02-09T12:51:55.281Z,10.50
2023-02-09T12:57:17.854Z,8.80
2023-02-09T13:02:50.098Z,8.90
2023-02-09T13:08:10.363Z,8.40
2023-02-09T13:13:12.437Z,8.20
2023-02-09T13:18:33.350Z,8.70
2023-02-09T13:23:47.015Z,8.90
2023-02-09T13:28:49.484Z,9.20
2023-02-09T13:34:00.557Z,15.80
2023-02-09T13:39:06.371Z,15.80
2023-02-09T13:44:26.875Z,17.30
2023-02-09T13:49:30.204Z,19.00
2023-02-09T13:54:32.032Z,20.50
2023-02-09T13:59:34.178Z,20.20
2023-02-09T14:04:36.334Z,19.20
2023-02-09T14:09:50.975Z,21.70
2023-02-09T14:15:16.354Z,22.20
2023-02-09T14:20:21.909Z,22.00
2023-02-09T14:25:32.066Z,22.60
2023-02-09T14:30:36.985Z,24.10
2023-02-09T14:35:41.907Z,24.50
2023-02-09T14:40:43.776Z,21.60
2023-02-09T14:45:59.618Z,22.70
2023-02-09T14:51:12.715Z,22.50
2023-02-09T14:56:31.419Z,22.40
2023-02-09T15:01:33.352Z,20.20
2023-02-09T15:06:36.393Z,16.90
2023-02-09T15:12:03.304Z,14.90
2023-02-09T15:17:16.119Z,11.00
2023-02-09T15:22:19.144Z,10.70
2023-02-09T15:27:43.882Z,9.00
2023-02-09T15:32:49.347Z,8.20
2023-02-09T15:38:12.011Z,8.40
2023-02-09T15:43:35.211Z,7.40
2023-02-09T15:48:37.173Z,7.30
2023-02-09T15:53:39.484Z,6.90
2023-02-09T15:58:45.204Z,6.80
2023-02-09T16:03:47.240Z,6.70
2023-02-09T16:08:52.684Z,6.40
2023-02-09T16:13:55.894Z,6.20
2023-02-09T16:18:57.801Z,5.20
2023-02-09T16:24:02.670Z,5.00
2023-02-09T16:29:06.465Z,5.10
2023-02-09T16:39:22.561Z,4.70
2023-02-09T16:44:26.617Z,4.60
2023-02-09T16:54:37.282Z,4.10
2023-02-09T16:59:39.066Z,3.90
2023-02-09T17:04:40.831Z,3.60
2023-02-09T17:09:42.662Z,3.60
2023-02-09T17:14:44.637Z,3.60
2023-02-09T17:19:48.424Z,3.50
2023-02-09T17:24:50.358Z,3.30
2023-02-09T17:29:52.529Z,3.30
2023-02-09T17:34:54.462Z,3.20
2023-02-09T17:39:56.498Z,3.20
2023-02-09T17:44:58.581Z,2.90
2023-02-09T17:50:00.391Z,2.90
2023-02-09T17:55:02.155Z,2.70
2023-02-09T18:00:04.385Z,2.60
2023-02-09T18:05:06.862Z,2.50
2023-02-09T18:10:08.822Z,2.50
2023-02-09T18:15:33.658Z,2.40
2023-02-09T18:20:36.322Z,2.40
2023-02-09T18:25:39.712Z,2.40
2023-02-09T18:30:43.290Z,2.40
2023-02-09T18:35:45.727Z,2.40
2023-02-09T18:40:47.849Z,2.30
2023-02-09T18:45:51.858Z,2.30
2023-02-09T18:50:53.866Z,2.30
2023-02-09T18:55:55.764Z,1.80
2023-02-09T19:05:59.970Z,2.30
2023-02-09T19:11:02.158Z,1.70
2023-02-09T19:16:04.492Z,1.70
2023-02-09T19:21:07.422Z,1.70
2023-02-09T19:26:10.385Z,1.70
2023-02-09T19:31:17.455Z,1.60
2023-02-09T19:36:19.388Z,1.60
2023-02-09T19:41:24.269Z,1.50
2023-02-09T19:46:26.092Z,1.50
2023-02-09T19:51:30.010Z,1.30
2023-02-09T19:56:31.955Z,1.30
2023-02-09T20:01:33.820Z,1.30
2023-02-09T20:06:36.101Z,1.30
2023-02-09T20:11:38.448Z,1.30
2023-02-09T20:16:40.796Z,1.20
2023-02-09T20:21:42.983Z,1.00
2023-02-09T20:26:46.044Z,1.00
2023-02-09T20:31:48.362Z,0.90
2023-02-09T20:36:50.905Z,0.90
2023-02-09T20:42:16.930Z,1.00
2023-02-09T20:47:19.084Z,0.90
2023-02-09T20:52:21.118Z,0.70
2023-02-09T20:57:29.662Z,0.70
2023-02-09T21:02:31.528Z,0.60
2023-02-09T21:07:34.181Z,0.60
2023-02-09T21:12:35.910Z,0.40
2023-02-09T21:17:43.722Z,0.40
2023-02-09T21:22:45.557Z,2.30
2023-02-09T21:27:47.356Z,0.50
2023-02-09T21:32:49.111Z,0.50
2023-02-09T21:37:50.992Z,0.50
2023-02-09T21:42:52.766Z,2.00
2023-02-09T21:47:54.691Z,-2.00
2023-02-09T21:52:56.537Z,0.30
2023-02-09T21:57:58.828Z,0.20
2023-02-09T22:03:00.940Z,0.00
2023-02-09T22:08:02.806Z,0.00
2023-02-09T22:13:08.676Z,0.00
2023-02-09T22:18:11.104Z,-0.20
2023-02-09T22:23:13.372Z,-0.10
2023-02-09T22:28:15.356Z,-0.10
2023-02-09T22:33:17.735Z,-0.10
2023-02-09T22:38:19.432Z,-0.20
2023-02-09T22:43:21.308Z,-0.10
2023-02-09T22:48:23.189Z,-0.10
2023-02-09T22:53:24.883Z,-0.10
2023-02-09T22:58:26.612Z,-0.10
2023-02-09T23:03:28.703Z,-0.10
2023-02-09T23:08:30.838Z,-0.30
2023-02-09T23:13:33.988Z,-0.20
2023-02-09T23:18:35.741Z,-0.40
2023-02-09T23:23:37.574Z,-0.40
2023-02-09T23:28:39.338Z,-0.60
2023-02-09T23:33:41.749Z,0.50
2023-02-09T23:38:45.526Z,-0.40
2023-02-09T23:43:49.059Z,-0.50
2023-02-09T23:48:53.413Z,-0.60
2023-02-09T23:53:57.210Z,-0.60
2023-02-09T23:58:59.339Z,-0.70
